Time;durP1;ratioP1;P1;durP2;ratioP2;P2;SDS_P1;SDS_P2;PMS_P1;PMS_P2;Temp;Humidity;BMP_temperature;BMP_pressure;BME280_temperature;BME280_humidity;BME280_pressure;Samples;Min_cycle;Max_cycle;Signal;HPM_P1;HPM_P2
2021/06/25 00:00:09;;;;;;;;;;;;;;;21.24;80.44;99601.06;5052151;28;809;-56
2021/06/25 00:02:36;;;;;;;;;;;;;;;21.21;80.66;99600.00;5051829;28;826;-56
2021/06/25 00:05:03;;;;;;;;;;;;;;;21.15;80.16;99605.50;5050638;28;795;-56
2021/06/25 00:07:30;;;;;;;;;;;;;;;21.03;80.27;99609.31;5051618;28;1882;-56
2021/06/25 00:09:57;;;;;;;;;;;;;;;20.92;80.59;99618.28;5051756;28;787;-56
2021/06/25 00:12:23;;;;;;;;;;;;;;;20.83;80.75;99614.78;5051903;28;910;-56
2021/06/25 00:14:50;;;;;;;;;;;;;;;20.73;80.97;99612.00;5051350;28;1279;-56
2021/06/25 00:17:17;;;;;;;;;;;;;;;20.67;81.04;99615.97;5051589;28;1193;-56
2021/06/25 00:19:45;;;;;;;;;;;;;;;20.57;81.20;99618.03;5051622;28;818;-56
2021/06/25 00:22:12;;;;;;;;;;;;;;;20.55;81.25;99623.34;5051747;28;959;-56
2021/06/25 00:24:38;;;;;;;;;;;;;;;20.57;82.14;99621.63;5051671;28;791;-56
2021/06/25 00:27:06;;;;;;;;;;;;;;;20.68;82.09;99629.53;5051840;28;901;-56
2021/06/25 00:29:33;;;;;;;;;;;;;;;20.77;82.29;99615.44;5051437;28;1934;-56
2021/06/25 00:31:59;;;;;;;;;;;;;;;20.83;81.85;99612.75;5050868;28;865;-56
2021/06/25 00:34:26;;;;;;;;;;;;;;;20.82;81.87;99613.97;5051353;28;946;-56
2021/06/25 00:36:53;;;;;;;;;;;;;;;20.83;82.27;99611.97;5051477;28;897;-56
2021/06/25 00:39:20;;;;;;;;;;;;;;;20.85;82.34;99615.84;5051336;28;866;-56
2021/06/25 00:41:47;;;;;;;;;;;;;;;20.89;82.48;99619.25;5051428;28;830;-56
2021/06/25 00:44:20;;;;;;;;;;;;;;;20.92;82.33;99612.69;5051412;28;810;-56
2021/06/25 00:46:46;;;;;;;;;;;;;;;20.91;82.19;99599.91;5051217;28;850;-56
2021/06/25 00:49:14;;;;;;;;;;;;;;;20.86;82.15;99600.53;5051285;28;1885;-56
2021/06/25 00:51:41;;;;;;;;;;;;;;;20.79;82.08;99598.88;5051271;28;811;-56
2021/06/25 00:54:10;;;;;;;;;;;;;;;20.69;82.15;99603.00;5049910;28;885;-56
2021/06/25 00:56:36;;;;;;;;;;;;;;;20.64;82.22;99609.28;5051109;28;862;-56
2021/06/25 00:59:04;;;;;;;;;;;;;;;20.66;82.44;99608.81;5051353;28;810;-56
2021/06/25 01:01:30;;;;;;;;;;;;;;;20.68;82.08;99609.09;5051160;28;832;-56
2021/06/25 01:03:57;;;;;;;;;;;;;;;20.67;82.01;99608.31;5051192;28;814;-56
2021/06/25 01:06:24;;;;;;;;;;;;;;;20.60;82.11;99595.41;5051167;28;846;-56
2021/06/25 01:08:51;;;;;;;;;;;;;;;20.56;82.22;99606.00;5051037;28;1890;-56
2021/06/25 01:11:18;;;;;;;;;;;;;;;20.55;82.62;99607.25;5049764;28;1618;-56
2021/06/25 01:13:45;;;;;;;;;;;;;;;20.62;83.04;99599.78;5050758;28;1381;-56
2021/06/25 01:16:13;;;;;;;;;;;;;;;20.68;83.19;99597.88;5051249;28;842;-56
2021/06/25 01:18:40;;;;;;;;;;;;;;;20.70;82.76;99595.38;5051019;28;846;-56
2021/06/25 01:21:07;;;;;;;;;;;;;;;20.70;82.85;99603.78;5050967;28;830;-56
2021/06/25 01:23:38;;;;;;;;;;;;;;;20.71;83.16;99594.88;5050823;28;932;-56
2021/06/25 01:26:05;;;;;;;;;;;;;;;20.75;82.98;99591.88;5051180;28;1010;-56
2021/06/25 01:28:32;;;;;;;;;;;;;;;20.78;83.00;99590.91;5050915;28;1974;-56
2021/06/25 01:30:59;;;;;;;;;;;;;;;20.84;82.85;99580.59;5049637;28;1234;-56
2021/06/25 01:33:26;;;;;;;;;;;;;;;20.87;82.78;99581.66;5050872;28;810;-56
2021/06/25 01:35:56;;;;;;;;;;;;;;;20.91;83.11;99576.63;5050749;28;934;-56
2021/06/25 01:38:23;;;;;;;;;;;;;;;20.94;83.06;99584.88;5050847;28;819;-56
2021/06/25 01:40:50;;;;;;;;;;;;;;;20.96;82.96;99576.75;5050829;28;870;-56
2021/06/25 01:43:17;;;;;;;;;;;;;;;20.97;83.13;99566.28;5051402;28;869;-56
2021/06/25 01:45:44;;;;;;;;;;;;;;;20.96;83.38;99561.94;5054390;28;822;-56
2021/06/25 01:48:11;;;;;;;;;;;;;;;20.93;83.24;99560.88;5054280;28;1878;-56
2021/06/25 01:50:39;;;;;;;;;;;;;;;20.90;83.63;99556.19;5054276;28;831;-56
2021/06/25 01:53:07;;;;;;;;;;;;;;;20.86;83.21;99552.03;5053011;28;881;-56
2021/06/25 01:55:41;;;;;;;;;;;;;;;20.84;83.53;99544.06;5053269;28;794;-56
2021/06/25 01:58:09;;;;;;;;;;;;;;;20.80;83.88;99551.91;5054134;28;944;-56
2021/06/25 02:00:37;;;;;;;;;;;;;;;20.76;83.89;99545.69;5053991;28;869;-56
2021/06/25 02:03:03;;;;;;;;;;;;;;;20.71;83.99;99549.94;5054103;28;779;-56
2021/06/25 02:05:30;;;;;;;;;;;;;;;20.66;84.13;99535.78;5053954;28;1018;-56
2021/06/25 02:07:56;;;;;;;;;;;;;;;20.60;83.96;99536.44;5053888;28;1956;-56
2021/06/25 02:10:23;;;;;;;;;;;;;;;20.54;83.99;99531.94;5054213;28;826;-56
2021/06/25 02:12:51;;;;;;;;;;;;;;;20.45;83.89;99535.56;5053909;28;1164;-56
2021/06/25 02:15:17;;;;;;;;;;;;;;;20.39;83.79;99543.88;5053839;28;830;-56
2021/06/25 02:17:44;;;;;;;;;;;;;;;20.31;84.02;99539.88;5053657;28;884;-56
2021/06/25 02:20:10;;;;;;;;;;;;;;;20.26;84.06;99534.13;5053763;28;806;-56
2021/06/25 02:22:38;;;;;;;;;;;;;;;20.21;83.92;99526.38;5053551;28;917;-56
2021/06/25 02:25:09;;;;;;;;;;;;;;;20.19;84.07;99535.25;5053586;28;940;-56
2021/06/25 02:27:35;;;;;;;;;;;;;;;20.17;84.16;99534.97;5053451;28;1906;-56
2021/06/25 02:30:03;;;;;;;;;;;;;;;20.15;84.11;99527.00;5053550;28;787;-56
2021/06/25 02:32:29;;;;;;;;;;;;;;;20.13;84.30;99520.31;5053490;28;893;-56
2021/06/25 02:34:55;;;;;;;;;;;;;;;20.12;84.92;99513.94;5053585;28;861;-56
2021/06/25 02:37:22;;;;;;;;;;;;;;;20.15;85.01;99515.00;5053401;28;893;-56
2021/06/25 02:39:49;;;;;;;;;;;;;;;20.17;85.22;99509.72;5053354;28;885;-56
2021/06/25 02:42:15;;;;;;;;;;;;;;;20.17;85.10;99510.47;5053329;28;857;-56
2021/06/25 02:44:42;;;;;;;;;;;;;;;20.18;85.32;99508.44;5053249;28;863;-56
2021/06/25 02:47:09;;;;;;;;;;;;;;;20.22;85.30;99511.06;5053272;28;869;-56
2021/06/25 02:49:36;;;;;;;;;;;;;;;20.23;85.24;99502.19;5053117;28;1961;-56
2021/06/25 02:52:03;;;;;;;;;;;;;;;20.25;85.26;99504.50;5053023;28;942;-56
2021/06/25 02:54:30;;;;;;;;;;;;;;;20.28;85.13;99500.75;5052631;28;913;-56
2021/06/25 02:56:56;;;;;;;;;;;;;;;20.27;85.07;99497.19;5052953;28;850;-56
2021/06/25 02:59:23;;;;;;;;;;;;;;;20.30;85.00;99501.84;5052974;28;969;-56
2021/06/25 03:01:50;;;;;;;;;;;;;;;20.31;85.04;99497.78;5052936;28;810;-56
2021/06/25 03:04:16;;;;;;;;;;;;;;;20.34;85.09;99502.44;5052906;28;799;-56
2021/06/25 03:06:43;;;;;;;;;;;;;;;20.35;84.88;99498.34;5052968;28;830;-56
2021/06/25 03:09:10;;;;;;;;;;;;;;;20.39;84.50;99492.56;5052750;28;1949;-56
2021/06/25 03:11:37;;;;;;;;;;;;;;;20.42;84.46;99494.44;5052664;28;921;-56
2021/06/25 03:14:04;;;;;;;;;;;;;;;20.46;84.29;99499.84;5052519;28;1901;-56
2021/06/25 03:16:30;;;;;;;;;;;;;;;20.50;84.30;99492.03;5051413;28;1291;-56
2021/06/25 03:18:57;;;;;;;;;;;;;;;20.57;84.13;99492.50;5052511;28;967;-56
2021/06/25 03:21:24;;;;;;;;;;;;;;;20.66;83.72;99479.63;5052391;28;952;-56
2021/06/25 03:23:50;;;;;;;;;;;;;;;20.74;83.72;99478.78;5052497;28;834;-56
2021/06/25 03:26:17;;;;;;;;;;;;;;;20.81;83.44;99472.03;5052351;28;858;-56
2021/06/25 03:28:44;;;;;;;;;;;;;;;20.91;83.03;99472.69;5052411;28;1975;-56
2021/06/25 03:31:10;;;;;;;;;;;;;;;21.00;82.76;99479.03;5052268;28;975;-56
2021/06/25 03:33:37;;;;;;;;;;;;;;;21.09;82.47;99485.81;5052431;28;874;-56
2021/06/25 03:36:04;;;;;;;;;;;;;;;21.15;81.86;99483.88;5052340;28;888;-56
2021/06/25 03:38:32;;;;;;;;;;;;;;;21.24;81.59;99489.41;5052377;28;821;-56
2021/06/25 03:40:59;;;;;;;;;;;;;;;21.40;81.16;99483.31;5052187;28;897;-57
2021/06/25 03:43:25;;;;;;;;;;;;;;;21.57;80.25;99482.81;5052252;28;826;-56
2021/06/25 03:45:52;;;;;;;;;;;;;;;21.59;79.81;99488.75;5052502;28;826;-57
2021/06/25 03:48:19;;;;;;;;;;;;;;;21.60;79.81;99482.63;5051960;28;1955;-57
2021/06/25 03:50:46;;;;;;;;;;;;;;;21.66;79.76;99482.75;5052019;28;826;-57
2021/06/25 03:53:12;;;;;;;;;;;;;;;21.70;79.62;99488.94;5051962;28;826;-57
2021/06/25 03:58:24;;;;;;;;;;;;;;;21.85;79.00;99491.72;5051863;28;605;-57
2021/06/25 04:00:51;;;;;;;;;;;;;;;21.95;79.12;99489.56;5051892;28;826;-56
2021/06/25 04:03:17;;;;;;;;;;;;;;;22.10;78.82;99486.72;5051744;28;952;-57
2021/06/25 04:05:44;;;;;;;;;;;;;;;22.32;78.27;99486.25;5051197;28;873;-57
2021/06/25 04:08:10;;;;;;;;;;;;;;;22.49;78.30;99490.09;5051731;28;1889;-57
2021/06/25 04:10:37;;;;;;;;;;;;;;;22.72;78.32;99487.53;5051705;28;877;-56
2021/06/25 04:13:03;;;;;;;;;;;;;;;22.95;77.11;99485.75;5051775;28;1197;-57
2021/06/25 04:15:30;;;;;;;;;;;;;;;23.21;76.87;99500.66;5051670;28;834;-57
2021/06/25 04:17:57;;;;;;;;;;;;;;;23.56;76.27;99507.41;5050560;28;807;-56
2021/06/25 04:20:23;;;;;;;;;;;;;;;23.91;75.28;99512.03;5051491;28;802;-56
2021/06/25 04:22:50;;;;;;;;;;;;;;;24.31;74.01;99496.91;5051572;28;827;-57
2021/06/25 04:25:17;;;;;;;;;;;;;;;24.64;72.91;99492.72;5051528;28;845;-57
2021/06/25 04:27:45;;;;;;;;;;;;;;;24.77;72.40;99484.56;5051473;28;1977;-57
2021/06/25 04:30:13;;;;;;;;;;;;;;;24.65;73.01;99480.91;5050171;28;1235;-57
2021/06/25 04:32:40;;;;;;;;;;;;;;;24.50;73.45;99485.22;5051466;28;913;-57
2021/06/25 04:35:07;;;;;;;;;;;;;;;24.35;74.18;99494.63;5051463;28;794;-57
2021/06/25 04:37:34;;;;;;;;;;;;;;;24.44;74.55;99493.63;5051425;28;814;-57
2021/06/25 04:40:01;;;;;;;;;;;;;;;24.61;73.68;99488.09;5051394;28;811;-57
2021/06/25 04:42:27;;;;;;;;;;;;;;;24.72;73.25;99493.78;5051367;28;861;-57
2021/06/25 04:44:54;;;;;;;;;;;;;;;24.95;72.84;99491.03;5051307;28;885;-57
2021/06/25 04:47:20;;;;;;;;;;;;;;;25.19;72.08;99491.31;5051245;28;831;-57
2021/06/25 04:49:46;;;;;;;;;;;;;;;25.41;71.31;99498.31;5051147;28;1882;-57
2021/06/25 04:52:13;;;;;;;;;;;;;;;25.65;70.05;99503.50;5050062;28;829;-57
2021/06/25 04:54:40;;;;;;;;;;;;;;;26.13;68.18;99508.09;5051267;28;802;-57
2021/06/25 04:57:07;;;;;;;;;;;;;;;26.82;65.99;99510.22;5050039;28;882;-57
2021/06/25 04:59:34;;;;;;;;;;;;;;;27.59;63.54;99511.53;5051258;28;811;-57
2021/06/25 05:02:00;;;;;;;;;;;;;;;27.80;63.10;99509.03;5051137;28;867;-57
2021/06/25 05:04:27;;;;;;;;;;;;;;;27.77;63.02;99512.94;5051137;28;870;-57
2021/06/25 05:15:14;;;;;;;;;;;;;;;31.24;54.46;99521.63;5031564;28;647;-57
2021/06/25 05:17:41;;;;;;;;;;;;;;;32.06;52.74;99532.88;5032775;28;971;-57
2021/06/25 05:20:08;;;;;;;;;;;;;;;32.45;51.75;99530.28;5035179;28;830;-58
2021/06/25 05:22:34;;;;;;;;;;;;;;;32.64;51.55;99539.38;5035469;28;821;-58
2021/06/25 05:25:01;;;;;;;;;;;;;;;32.99;50.40;99537.06;5034983;28;877;-58
2021/06/25 05:27:27;;;;;;;;;;;;;;;33.56;49.11;99536.09;5034858;28;818;-58
2021/06/25 05:29:54;;;;;;;;;;;;;;;33.65;48.86;99531.91;5034710;28;1906;-58
2021/06/25 05:32:20;;;;;;;;;;;;;;;33.49;49.66;99537.63;5035084;28;814;-58
2021/06/25 05:34:47;;;;;;;;;;;;;;;33.56;49.30;99530.34;5034678;28;794;-58
2021/06/25 05:49:25;;;;;;;;;;;;;;;35.89;44.18;99524.91;5034713;28;1898;-58
2021/06/25 05:51:51;;;;;;;;;;;;;;;36.16;43.95;99519.28;5034378;28;825;-58
2021/06/25 05:54:18;;;;;;;;;;;;;;;36.33;42.57;99523.56;5034325;28;955;-58
2021/06/25 05:56:45;;;;;;;;;;;;;;;36.34;42.25;99522.97;5034569;28;822;-59
2021/06/25 05:59:11;;;;;;;;;;;;;;;36.78;41.83;99533.81;5034305;28;822;-59
2021/06/25 06:01:38;;;;;;;;;;;;;;;36.72;41.88;99521.03;5034206;28;814;-59
2021/06/25 06:04:05;;;;;;;;;;;;;;;36.52;41.64;99520.09;5034123;28;846;-59
2021/06/25 06:06:31;;;;;;;;;;;;;;;36.57;41.11;99527.69;5034109;28;821;-59
2021/06/25 06:08:58;;;;;;;;;;;;;;;36.45;41.79;99532.47;5033973;28;1952;-59
2021/06/25 06:11:25;;;;;;;;;;;;;;;36.76;40.97;99530.75;5033932;28;930;-59
2021/06/25 06:13:52;;;;;;;;;;;;;;;37.42;39.69;99524.53;5059033;28;1292;-59
2021/06/25 06:16:20;;;;;;;;;;;;;;;37.72;39.27;99529.06;5073897;28;830;-59
2021/06/25 06:18:48;;;;;;;;;;;;;;;37.75;39.06;99515.59;5073788;28;952;-59
2021/06/25 06:21:16;;;;;;;;;;;;;;;37.46;39.49;99518.34;5073850;28;806;-59
2021/06/25 06:32:08;;;;;;;;;;;;;;;38.15;36.48;99494.94;5073528;28;620;-59
2021/06/25 06:37:37;;;;;;;;;;;;;;;38.56;36.33;99489.34;5073433;28;613;-59
2021/06/25 06:40:04;;;;;;;;;;;;;;;38.40;36.74;99488.84;5073453;28;802;-59
2021/06/25 06:42:31;;;;;;;;;;;;;;;38.74;35.98;99486.28;5073199;28;841;-59
2021/06/25 06:44:58;;;;;;;;;;;;;;;39.14;35.71;99485.63;5073276;28;837;-59
2021/06/25 06:47:25;;;;;;;;;;;;;;;38.56;36.41;99477.06;5073259;28;841;-59
2021/06/25 06:49:52;;;;;;;;;;;;;;;38.99;35.58;99483.09;5073102;28;1914;-59
2021/06/25 06:52:18;;;;;;;;;;;;;;;39.36;35.06;99482.81;5073171;28;814;-59
2021/06/25 06:54:45;;;;;;;;;;;;;;;39.15;35.82;99483.47;5073134;28;818;-59
2021/06/25 06:57:11;;;;;;;;;;;;;;;39.04;35.58;99476.22;5073077;28;872;-59
2021/06/25 06:59:38;;;;;;;;;;;;;;;39.14;35.24;99476.19;5073269;28;858;-59
2021/06/25 07:02:05;;;;;;;;;;;;;;;38.90;35.50;99478.81;5073077;28;889;-59
2021/06/25 07:04:31;;;;;;;;;;;;;;;38.43;36.28;99480.34;5072840;28;790;-59
2021/06/25 07:06:58;;;;;;;;;;;;;;;38.56;36.58;99474.16;5072914;28;813;-59
2021/06/25 07:09:25;;;;;;;;;;;;;;;38.87;37.27;99485.81;5072808;28;1883;-59
2021/06/25 07:11:52;;;;;;;;;;;;;;;39.69;34.80;99479.31;5072985;28;855;-59
2021/06/25 07:14:18;;;;;;;;;;;;;;;40.57;34.18;99476.63;5072502;28;1371;-59
2021/06/25 07:16:45;;;;;;;;;;;;;;;41.04;34.26;99484.72;5072628;28;897;-59
2021/06/25 07:19:12;;;;;;;;;;;;;;;40.84;33.42;99478.38;5088290;28;1548;-59
2021/06/25 07:21:38;;;;;;;;;;;;;;;40.86;31.69;99476.34;5072562;28;802;-59
2021/06/25 07:24:06;;;;;;;;;;;;;;;41.10;31.50;99480.06;5072575;28;830;-59
2021/06/25 07:26:33;;;;;;;;;;;;;;;41.38;31.56;99469.53;5072395;28;793;-59
2021/06/25 07:29:00;;;;;;;;;;;;;;;41.47;29.23;99476.59;5072315;28;1905;-59
2021/06/25 07:31:27;;;;;;;;;;;;;;;41.42;29.36;99466.91;5072531;28;834;-59
2021/06/25 07:33:54;;;;;;;;;;;;;;;41.43;30.18;99471.28;5072322;28;872;-59
2021/06/25 07:36:20;;;;;;;;;;;;;;;41.75;29.46;99471.06;5072322;28;896;-59
2021/06/25 07:38:47;;;;;;;;;;;;;;;41.85;29.41;99477.47;5072311;28;826;-59
2021/06/25 07:41:13;;;;;;;;;;;;;;;41.70;29.10;99478.75;5072006;28;838;-59
2021/06/25 07:43:40;;;;;;;;;;;;;;;41.46;29.28;99474.31;5072150;28;837;-59
2021/06/25 07:46:07;;;;;;;;;;;;;;;41.03;30.28;99463.66;5072173;28;802;-59
2021/06/25 07:48:34;;;;;;;;;;;;;;;41.06;29.34;99459.53;5072144;28;1886;-59
2021/06/25 07:51:01;;;;;;;;;;;;;;;41.01;29.57;99467.22;5072058;28;810;-59
2021/06/25 07:53:27;;;;;;;;;;;;;;;40.87;29.67;99459.75;5072066;28;869;-59
2021/06/25 07:55:54;;;;;;;;;;;;;;;41.14;31.41;99465.06;5072104;28;814;-59
2021/06/25 07:58:20;;;;;;;;;;;;;;;41.52;30.12;99463.09;5072128;28;810;-59
2021/06/25 08:00:47;;;;;;;;;;;;;;;41.50;29.82;99463.72;5072151;28;893;-59
2021/06/25 08:03:14;;;;;;;;;;;;;;;41.64;29.54;99468.94;5072168;28;830;-59
2021/06/25 08:05:41;;;;;;;;;;;;;;;41.70;29.77;99463.50;5071985;28;826;-59
2021/06/25 08:08:08;;;;;;;;;;;;;;;42.09;30.21;99465.84;5071998;28;1951;-59
2021/06/25 08:10:35;;;;;;;;;;;;;;;42.42;28.97;99462.72;5071917;28;841;-59
2021/06/25 08:13:04;;;;;;;;;;;;;;;42.50;28.03;99469.00;5072313;28;1106;-59
2021/06/25 08:15:30;;;;;;;;;;;;;;;41.84;29.47;99464.34;5071481;28;1426;-59
2021/06/25 08:17:56;;;;;;;;;;;;;;;41.58;29.59;99469.31;5072221;28;829;-59
2021/06/25 08:20:23;;;;;;;;;;;;;;;41.58;29.65;99463.50;5071998;28;838;-59
2021/06/25 08:22:50;;;;;;;;;;;;;;;41.39;30.34;99473.94;5071976;28;849;-59
2021/06/25 08:25:17;;;;;;;;;;;;;;;41.91;29.72;99469.16;5072063;28;885;-59
2021/06/25 08:27:43;;;;;;;;;;;;;;;42.39;29.46;99487.22;5071991;28;1914;-59
2021/06/25 08:30:11;;;;;;;;;;;;;;;42.43;28.32;99481.66;5071601;28;1032;-59
2021/06/25 08:32:38;;;;;;;;;;;;;;;42.12;29.48;99487.78;5072016;28;854;-59
2021/06/25 08:35:08;;;;;;;;;;;;;;;41.94;29.67;99484.53;5071813;28;929;-59
2021/06/25 08:37:35;;;;;;;;;;;;;;;42.28;29.59;99482.97;5071496;28;833;-59
2021/06/25 08:40:03;;;;;;;;;;;;;;;42.92;28.89;99486.63;5071340;28;881;-59
2021/06/25 08:42:30;;;;;;;;;;;;;;;43.41;28.52;99474.81;5071360;28;925;-59
2021/06/25 08:44:57;;;;;;;;;;;;;;;44.27;27.69;99485.13;5071474;28;842;-59
2021/06/25 08:47:27;;;;;;;;;;;;;;;44.29;27.63;99479.41;5071376;28;816;-60
2021/06/25 08:49:54;;;;;;;;;;;;;;;44.33;27.21;99475.97;5071312;28;1885;-60
2021/06/25 08:52:21;;;;;;;;;;;;;;;44.11;27.11;99484.31;5072146;28;901;-59
2021/06/25 08:54:48;;;;;;;;;;;;;;;43.37;27.29;99486.22;5075408;28;893;-59
2021/06/25 08:57:13;;;;;;;;;;;;;;;43.10;28.25;99484.72;5075472;28;892;-60
2021/06/25 08:59:44;;;;;;;;;;;;;;;43.67;27.35;99484.22;5075386;28;806;-59
2021/06/25 09:02:10;;;;;;;;;;;;;;;43.87;27.18;99484.53;5075294;28;810;-59
2021/06/25 09:04:40;;;;;;;;;;;;;;;43.95;27.47;99478.38;5075316;28;825;-59
2021/06/25 09:07:11;;;;;;;;;;;;;;;43.94;27.67;99474.72;5075106;28;847;-59
2021/06/25 09:09:46;;;;;;;;;;;;;;;44.12;27.02;99477.09;5075040;28;1890;-59
2021/06/25 09:12:14;;;;;;;;;;;;;;;44.10;26.70;99474.81;5075377;28;1000;-59
2021/06/25 09:14:59;;;;;;;;;;;;;;;44.48;26.68;99469.47;5074913;28;1225;-59
2021/06/25 09:17:27;;;;;;;;;;;;;;;44.35;27.56;99476.06;5075158;28;865;-59
2021/06/25 09:19:54;;;;;;;;;;;;;;;44.36;27.37;99472.47;5075117;28;884;-59
2021/06/25 09:22:21;;;;;;;;;;;;;;;44.91;27.39;99470.81;5075289;28;817;-60
2021/06/25 09:25:00;;;;;;;;;;;;;;;44.63;26.53;99468.75;5075083;28;810;-60
2021/06/25 09:27:27;;;;;;;;;;;;;;;44.31;27.39;99467.13;5074851;28;913;-60
2021/06/25 09:29:55;;;;;;;;;;;;;;;44.38;27.12;99460.94;5074537;28;1902;-60
2021/06/25 09:32:34;;;;;;;;;;;;;;;44.35;26.87;99459.34;5074605;28;898;-60
2021/06/25 09:35:11;;;;;;;;;;;;;;;44.78;26.58;99460.69;5074849;28;886;-60
2021/06/25 09:37:41;;;;;;;;;;;;;;;45.32;26.11;99455.97;5074526;28;814;-60
2021/06/25 09:40:08;;;;;;;;;;;;;;;45.46;26.39;99452.22;5074518;28;876;-61
2021/06/25 09:42:35;;;;;;;;;;;;;;;45.90;27.48;99449.78;5074574;28;802;-60
2021/06/25 09:45:01;;;;;;;;;;;;;;;45.80;26.06;99436.25;5074391;28;1024;-61
2021/06/25 09:47:32;;;;;;;;;;;;;;;44.75;26.62;99438.72;5074429;28;814;-60
2021/06/25 09:50:12;;;;;;;;;;;;;;;42.72;29.72;99443.41;5074703;28;1943;-60
2021/06/25 09:52:59;;;;;;;;;;;;;;;42.28;30.05;99438.66;5074284;28;905;-60
2021/06/25 09:55:27;;;;;;;;;;;;;;;42.74;30.32;99443.50;5074297;28;861;-60
2021/06/25 09:58:47;;;;;;;;;;;;;;;43.71;29.84;99437.13;5074238;28;865;-60
2021/06/25 10:04:04;;;;;;;;;;;;;;;45.50;26.64;99440.75;5073407;28;605;-60
2021/06/25 10:06:36;;;;;;;;;;;;;;;45.24;27.73;99430.13;5074473;28;869;-60
2021/06/25 10:09:04;;;;;;;;;;;;;;;45.03;26.59;99431.31;5073923;28;1885;-60
2021/06/25 10:11:32;;;;;;;;;;;;;;;45.06;26.79;99434.34;5073961;28;970;-60
2021/06/25 10:13:59;;;;;;;;;;;;;;;45.26;26.40;99432.38;5073641;28;1221;-60
2021/06/25 10:16:26;;;;;;;;;;;;;;;45.04;26.00;99429.91;5074152;28;865;-60
2021/06/25 10:18:54;;;;;;;;;;;;;;;42.77;29.71;99438.56;5073799;28;841;-60
2021/06/25 10:21:21;;;;;;;;;;;;;;;42.42;30.42;99436.59;5073723;28;834;-60
2021/06/25 10:23:50;;;;;;;;;;;;;;;43.67;28.66;99439.84;5073764;28;829;-60
2021/06/25 10:26:18;;;;;;;;;;;;;;;44.54;27.30;99443.53;5072556;28;862;-60
2021/06/25 10:28:46;;;;;;;;;;;;;;;44.09;26.53;99437.66;5073606;28;1933;-60
2021/06/25 10:31:14;;;;;;;;;;;;;;;44.10;27.14;99433.31;5073794;28;814;-60
2021/06/25 10:33:41;;;;;;;;;;;;;;;43.75;27.34;99437.34;5073578;28;862;-60
2021/06/25 10:36:10;;;;;;;;;;;;;;;43.36;27.19;99426.53;5073459;28;826;-60
2021/06/25 10:38:38;;;;;;;;;;;;;;;43.09;27.97;99428.00;5072417;28;1238;-60
2021/06/25 10:41:07;;;;;;;;;;;;;;;42.91;28.17;99442.28;5073844;28;834;-60
2021/06/25 10:43:40;;;;;;;;;;;;;;;42.96;28.81;99431.66;5073341;28;924;-60
2021/06/25 10:46:06;;;;;;;;;;;;;;;42.76;29.47;99439.94;5073368;28;885;-60
2021/06/25 10:48:38;;;;;;;;;;;;;;;42.95;28.35;99436.69;5073251;28;1878;-60
2021/06/25 10:51:21;;;;;;;;;;;;;;;42.42;28.41;99433.69;5073271;28;817;-60
2021/06/25 10:54:08;;;;;;;;;;;;;;;42.39;27.17;99432.03;5073109;28;958;-60
2021/06/25 10:56:36;;;;;;;;;;;;;;;42.79;27.69;99429.97;5073049;28;884;-60
2021/06/25 10:59:23;;;;;;;;;;;;;;;42.53;27.14;99429.22;5073089;28;845;-60
2021/06/25 11:01:51;;;;;;;;;;;;;;;42.58;27.47;99428.81;5072983;28;892;-60
2021/06/25 11:04:30;;;;;;;;;;;;;;;43.16;27.99;99432.00;5072960;28;950;-60
2021/06/25 11:06:58;;;;;;;;;;;;;;;43.15;26.94;99431.25;5072795;28;794;-60
2021/06/25 11:09:28;;;;;;;;;;;;;;;43.06;26.46;99440.91;5088740;28;1886;-60
2021/06/25 11:12:13;;;;;;;;;;;;;;;42.66;26.67;99434.34;5072865;28;917;-60
2021/06/25 11:14:39;;;;;;;;;;;;;;;42.56;26.48;99431.59;5072621;28;1552;-60
2021/06/25 11:17:06;;;;;;;;;;;;;;;42.33;27.88;99432.44;5072636;28;845;-60
2021/06/25 11:19:36;;;;;;;;;;;;;;;42.65;28.10;99438.63;5072844;28;857;-60
2021/06/25 11:22:24;;;;;;;;;;;;;;;42.60;28.18;99436.88;5072643;28;916;-60
2021/06/25 11:24:54;;;;;;;;;;;;;;;43.03;27.89;99430.56;5072753;28;1119;-60
2021/06/25 11:27:21;;;;;;;;;;;;;;;42.65;27.66;99432.06;5072413;28;945;-60
2021/06/25 11:29:50;;;;;;;;;;;;;;;42.28;27.76;99430.69;5072415;28;1918;-59
2021/06/25 11:32:27;;;;;;;;;;;;;;;42.22;28.27;99428.19;5072438;28;866;-60
2021/06/25 11:34:53;;;;;;;;;;;;;;;42.60;28.40;99431.06;5072331;28;870;-60
2021/06/25 11:37:20;;;;;;;;;;;;;;;43.38;28.48;99430.34;5072173;28;576;-60
2021/06/25 11:39:49;;;;;;;;;;;;;;;43.71;26.93;99429.16;5072272;28;888;-60
2021/06/25 11:42:17;;;;;;;;;;;;;;;43.98;26.79;99413.81;5072219;28;841;-60
2021/06/25 11:44:45;;;;;;;;;;;;;;;44.52;25.91;99419.41;5072084;28;937;-58
2021/06/25 11:47:20;;;;;;;;;;;;;;;44.17;25.56;99417.66;5072005;28;933;-58
2021/06/25 11:52:26;;;;;;;;;;;;;;;43.29;27.13;99405.09;5072040;28;675;-57
2021/06/25 11:54:54;;;;;;;;;;;;;;;43.39;26.87;99399.09;5072264;28;872;-58
2021/06/25 11:57:31;;;;;;;;;;;;;;;43.33;26.65;99401.66;5071970;28;873;-57
2021/06/25 12:00:00;;;;;;;;;;;;;;;43.65;26.40;99393.91;5071829;28;877;-57
2021/06/25 12:02:38;;;;;;;;;;;;;;;43.51;26.66;99385.19;5070694;28;1716;-57
2021/06/25 12:05:05;;;;;;;;;;;;;;;43.66;27.72;99380.91;5072271;28;798;-57
2021/06/25 12:07:31;;;;;;;;;;;;;;;43.47;28.18;99379.16;5072279;28;896;-57
2021/06/25 12:09:58;;;;;;;;;;;;;;;41.63;29.33;99384.03;5071862;28;1890;-59
2021/06/25 12:12:27;;;;;;;;;;;;;;;39.99;31.72;99374.41;5070669;28;952;-59
2021/06/25 12:14:57;;;;;;;;;;;;;;;38.72;33.52;99367.75;5071708;28;1270;-59
2021/06/25 12:17:25;;;;;;;;;;;;;;;37.88;35.44;99370.25;5071660;28;905;-59
2021/06/25 12:20:03;;;;;;;;;;;;;;;37.45;35.70;99390.00;5071661;28;818;-59
2021/06/25 12:22:30;;;;;;;;;;;;;;;37.43;36.53;99396.38;5071819;28;860;-59
2021/06/25 12:24:57;;;;;;;;;;;;;;;37.46;36.35;99394.41;5071664;28;861;-59
2021/06/25 12:27:38;;;;;;;;;;;;;;;38.13;36.13;99387.25;5070801;28;838;-59
2021/06/25 12:30:07;;;;;;;;;;;;;;;40.40;32.80;99388.69;5071471;28;1914;-59
2021/06/25 12:32:34;;;;;;;;;;;;;;;42.06;30.55;99409.06;5071551;28;861;-60
2021/06/25 12:35:01;;;;;;;;;;;;;;;41.46;31.00;99404.72;5071517;28;881;-60
2021/06/25 12:37:46;;;;;;;;;;;;;;;39.45;33.64;99415.53;5071720;28;786;-59
2021/06/25 12:40:13;;;;;;;;;;;;;;;37.04;37.68;99418.47;5071451;28;949;-59
2021/06/25 12:42:40;;;;;;;;;;;;;;;37.39;38.68;99428.50;5070280;28;1418;-59
2021/06/25 12:45:07;;;;;;;;;;;;;;;37.85;38.06;99438.50;5071323;28;900;-59
2021/06/25 12:47:33;;;;;;;;;;;;;;;36.90;38.65;99432.50;5071473;28;872;-59
2021/06/25 12:50:00;;;;;;;;;;;;;;;35.81;40.76;99423.59;5071237;28;1886;-59
2021/06/25 12:52:28;;;;;;;;;;;;;;;34.99;43.18;99436.59;5071461;28;876;-59
2021/06/25 12:54:55;;;;;;;;;;;;;;;34.09;44.81;99434.25;5071236;28;929;-59
2021/06/25 12:57:21;;;;;;;;;;;;;;;33.45;46.70;99425.50;5071401;28;830;-59
2021/06/25 12:59:52;;;;;;;;;;;;;;;33.17;47.89;99429.31;5071304;28;892;-59
2021/06/25 13:02:20;;;;;;;;;;;;;;;33.05;48.54;99423.19;5071314;28;885;-58
2021/06/25 13:04:47;;;;;;;;;;;;;;;33.11;48.91;99425.88;5071161;28;856;-59
2021/06/25 13:07:20;;;;;;;;;;;;;;;33.32;48.57;99428.56;5071216;28;849;-58
2021/06/25 13:09:47;;;;;;;;;;;;;;;33.65;48.80;99425.91;5071094;28;1945;-58
2021/06/25 13:12:15;;;;;;;;;;;;;;;35.13;46.21;99426.41;5071436;28;987;-58
2021/06/25 13:14:43;;;;;;;;;;;;;;;35.72;45.13;99424.22;5070780;28;1426;-58
2021/06/25 13:17:10;;;;;;;;;;;;;;;36.12;45.13;99424.00;5071003;28;830;-59
2021/06/25 13:19:40;;;;;;;;;;;;;;;35.59;45.30;99422.41;5071746;28;825;-59
2021/06/25 13:22:14;;;;;;;;;;;;;;;35.24;46.39;99427.31;5071058;28;870;-59
2021/06/25 13:24:45;;;;;;;;;;;;;;;34.89;45.57;99410.66;5069945;28;826;-59
2021/06/25 13:27:13;;;;;;;;;;;;;;;35.80;43.61;99418.41;5070993;28;873;-59
2021/06/25 13:29:49;;;;;;;;;;;;;;;37.62;40.62;99415.88;5070873;28;1969;-59
2021/06/25 13:32:23;;;;;;;;;;;;;;;38.24;37.97;99403.19;5071004;28;794;-59
2021/06/25 13:34:56;;;;;;;;;;;;;;;38.67;36.41;99409.25;5071150;28;1479;-59
2021/06/25 13:37:43;;;;;;;;;;;;;;;38.91;36.25;99407.38;5070947;28;897;-59
2021/06/25 13:40:10;;;;;;;;;;;;;;;39.05;35.65;99398.97;5074497;28;1498;-59
2021/06/25 13:42:37;;;;;;;;;;;;;;;39.64;35.63;99399.47;5074542;28;818;-59
2021/06/25 13:45:17;;;;;;;;;;;;;;;40.37;34.98;99384.16;5074439;28;822;-59
2021/06/25 13:47:44;;;;;;;;;;;;;;;41.07;33.26;99385.69;5074474;28;904;-59
2021/06/25 13:50:11;;;;;;;;;;;;;;;41.16;33.15;99372.47;5074496;28;1886;-59